Airfield :
LOGIN :

Register | Disclaimer

   EN    FR    IT 

 










Legend :    VFR   Marginal VFR   IFR   Intensive IFR   Very Intensive IFR
Visi :
Ceiling :
>= 8 km
>= 3000ft
5 to 8 km
1000 to 3000 ft
1500m to 5 km
500 to 1000 ft
800 to 1500m
200 to 500 ft
< 800m
< 200 ft
Symbols :   Thunderstorms  Fog  Heavy snow  Heavy precipitations  Wind > 20 kt
SIGMETs :     Misc.  Thunderstorms  Icing  Turbulence  Mountain Waves  Volcanic Ashes







- Airport Elevation : 274 ft
- IATA code : PUY


LDPL - Pula

CURRENT METAR :
  • 222000Z 08003KT CAVOK 10/06 Q1018 NOSIG

EXPIRED METARs :
  • 221930Z 09004KT CAVOK 10/08 Q1018 NOSIG
  • 221900Z 09003KT CAVOK 10/07 Q1018 NOSIG
  • 221830Z 08003KT CAVOK 14/09 Q1017 NOSIG
  • 221800Z VRB01KT CAVOK 16/10 Q1017 NOSIG
  • 221730Z VRB02KT CAVOK 19/09 Q1017 NOSIG

TAF TAF LDPL
Valid from the 22 at 18:00 until the 23 at 18:00 UTC


221725Z 2218/2318 VRB02KT CAVOK TX22/2311Z TN08/2301Z
PROB30
TEMPO 2310/2316 24007KT
No reported NOTAMs for that airfield.



MET'MAP, your aeronautical weather chart ! - Copyright ORBIFLY December 2007 - Disclaimer

ORBIFLY MET'MAP TEAM :

Programming & Development : Alexandra Zaïnal
Concept & Development : Baudouin d'Aumeries
Co-Development & Prog : Marc-Olivier Méhu
Technical & hardware support : Manuel Goepfert

Contact : metmap@orbifly.com




SOURCES & CREDITS :

   NOAA